createdAt,value
2018-09-03T00:00:40.387Z,44.43
2018-09-03T00:03:17.463Z,49.10
2018-09-03T00:05:55.717Z,45.83
2018-09-03T00:08:32.680Z,49.63
2018-09-03T00:11:10.025Z,48.97
2018-09-03T00:13:47.088Z,46.33
2018-09-03T00:16:26.759Z,48.40
2018-09-03T00:19:03.687Z,47.47
2018-09-03T00:21:42.121Z,47.60
2018-09-03T00:24:19.692Z,48.30
2018-09-03T00:27:01.651Z,48.40
2018-09-03T00:29:38.572Z,46.73
2018-09-03T00:32:20.581Z,54.37
2018-09-03T00:35:02.386Z,54.53
2018-09-03T00:37:44.533Z,51.37
2018-09-03T00:40:26.323Z,49.53
2018-09-03T00:43:08.115Z,48.00
2018-09-03T00:45:49.867Z,47.50
2018-09-03T00:48:27.256Z,48.67
2018-09-03T00:51:04.247Z,48.10
2018-09-03T00:53:45.862Z,49.83
2018-09-03T00:56:22.891Z,50.00
2018-09-03T00:59:00.202Z,50.67
2018-09-03T01:01:37.614Z,48.63
2018-09-03T01:04:16.090Z,50.47
2018-09-03T01:06:53.021Z,45.27
2018-09-03T01:09:37.756Z,48.57
2018-09-03T01:12:14.786Z,47.93
2018-09-03T01:14:54.613Z,54.10
2018-09-03T01:17:31.709Z,50.40
2018-09-03T01:20:10.144Z,51.97
2018-09-03T01:22:47.077Z,54.93
2018-09-03T01:25:25.431Z,50.80
2018-09-03T01:28:02.268Z,52.77
2018-09-03T01:30:52.820Z,49.70
2018-09-03T01:33:29.754Z,52.37
2018-09-03T01:36:30.242Z,50.47
2018-09-03T01:39:09.439Z,46.27
2018-09-03T01:41:46.802Z,53.13
2018-09-03T01:44:23.564Z,53.43
2018-09-03T01:47:08.867Z,48.00
2018-09-03T01:49:45.597Z,54.93
2018-09-03T01:52:23.151Z,52.37
2018-09-03T01:55:00.316Z,51.13
2018-09-03T01:57:37.836Z,54.00
2018-09-03T02:00:14.635Z,53.67
2018-09-03T02:02:51.979Z,50.10
2018-09-03T02:05:28.965Z,56.93
2018-09-03T02:08:13.006Z,52.90
2018-09-03T02:10:50.060Z,49.30
2018-09-03T02:13:38.987Z,52.70
2018-09-03T02:16:16.151Z,52.13
2018-09-03T02:18:54.330Z,51.00
2018-09-03T02:21:31.145Z,52.67
2018-09-03T02:24:09.375Z,51.17
2018-09-03T02:26:46.385Z,48.87
2018-09-03T02:29:26.959Z,55.03
2018-09-03T02:32:05.941Z,50.03
2018-09-03T02:34:47.434Z,51.27
2018-09-03T02:37:24.440Z,53.13
2018-09-03T02:40:02.317Z,56.40
2018-09-03T02:42:41.402Z,50.63
2018-09-03T02:45:18.650Z,49.17
2018-09-03T02:47:55.477Z,50.03
2018-09-03T02:50:32.663Z,47.60
2018-09-03T02:53:09.486Z,48.67
2018-09-03T02:55:48.675Z,46.67
2018-09-03T02:58:30.416Z,46.70
2018-09-03T03:01:09.403Z,42.20
2018-09-03T03:03:46.874Z,43.17
2018-09-03T03:06:25.118Z,41.83
2018-09-03T03:09:02.252Z,42.13
2018-09-03T03:11:41.761Z,39.47
2018-09-03T03:14:21.831Z,43.27
2018-09-03T03:17:01.689Z,40.60
2018-09-03T03:19:38.640Z,40.60
2018-09-03T03:22:15.931Z,43.50
2018-09-03T03:24:52.794Z,45.47
2018-09-03T03:27:33.296Z,40.97
2018-09-03T03:30:11.382Z,44.90
2018-09-03T03:32:49.594Z,38.73
2018-09-03T03:35:26.539Z,40.20
2018-09-03T03:38:06.078Z,41.00
2018-09-03T03:40:43.173Z,41.17
2018-09-03T03:43:20.381Z,42.80
2018-09-03T03:45:57.168Z,42.60
2018-09-03T03:48:34.113Z,44.77
2018-09-03T03:51:11.272Z,39.37
2018-09-03T03:53:49.893Z,40.00
2018-09-03T03:56:26.777Z,38.83
2018-09-03T03:59:04.154Z,38.30
2018-09-03T04:01:41.301Z,40.07
2018-09-03T04:04:20.377Z,39.83
2018-09-03T04:06:57.283Z,36.57
2018-09-03T04:09:36.046Z,40.80
2018-09-03T04:12:13.168Z,41.30
2018-09-03T04:14:59.469Z,40.37
2018-09-03T04:17:36.579Z,37.87
2018-09-03T04:20:17.823Z,37.43
2018-09-03T04:22:54.829Z,39.83
2018-09-03T04:25:32.245Z,41.67
2018-09-03T04:28:09.403Z,40.33
2018-09-03T04:30:47.949Z,40.27
2018-09-03T04:33:24.929Z,38.63
2018-09-03T04:36:03.638Z,37.30
2018-09-03T04:38:40.683Z,37.17
2018-09-03T04:41:22.776Z,36.97
2018-09-03T04:43:59.740Z,37.17
2018-09-03T04:46:37.604Z,35.40
2018-09-03T04:49:14.625Z,36.77
2018-09-03T04:51:52.256Z,39.60
2018-09-03T04:54:29.283Z,34.07
2018-09-03T04:57:06.632Z,35.70
2018-09-03T04:59:45.490Z,36.73
2018-09-03T05:02:23.780Z,37.07
2018-09-03T05:05:03.098Z,36.87
2018-09-03T05:07:41.966Z,33.77
2018-09-03T05:10:19.790Z,36.57
2018-09-03T05:12:56.882Z,33.00
2018-09-03T05:15:34.318Z,35.17
2018-09-03T05:18:11.478Z,35.90
2018-09-03T05:20:51.495Z,32.30
2018-09-03T05:23:28.739Z,34.93
2018-09-03T05:26:12.459Z,36.03
2018-09-03T05:28:49.662Z,32.77
2018-09-03T05:31:29.875Z,37.50
2018-09-03T05:34:07.093Z,31.97
2018-09-03T05:37:02.288Z,34.83
2018-09-03T05:39:41.433Z,34.13
2018-09-03T05:42:27.759Z,34.40
2018-09-03T05:45:07.229Z,35.60
2018-09-03T05:47:49.317Z,34.97
2018-09-03T05:50:28.656Z,38.37
2018-09-03T05:53:13.185Z,34.40
2018-09-03T05:55:50.559Z,34.17
2018-09-03T05:58:33.543Z,32.77
2018-09-03T06:01:09.013Z,38.13
2018-09-03T06:03:45.885Z,34.73
2018-09-03T06:06:21.250Z,32.93
2018-09-03T06:09:01.774Z,33.80
2018-09-03T06:11:36.984Z,35.23
2018-09-03T06:14:12.133Z,34.67
2018-09-03T06:16:54.455Z,37.40
2018-09-03T06:19:32.805Z,34.73
2018-09-03T06:22:11.319Z,36.03
2018-09-03T06:24:56.896Z,33.57
2018-09-03T06:27:33.837Z,34.67
2018-09-03T06:32:53.944Z,34.20
2018-09-03T06:35:32.390Z,42.57
2018-09-03T06:38:17.253Z,38.13
2018-09-03T06:40:54.577Z,40.47
2018-09-03T06:46:16.785Z,38.53
2018-09-03T06:49:04.023Z,35.50
2018-09-03T06:51:42.199Z,37.30
2018-09-03T06:54:17.464Z,37.97
2018-09-03T06:56:57.912Z,36.17
2018-09-03T06:59:36.386Z,34.43
2018-09-03T07:02:14.433Z,35.87
2018-09-03T07:04:57.029Z,33.37
2018-09-03T07:07:36.345Z,33.47
2018-09-03T07:10:21.140Z,34.07
2018-09-03T07:12:57.367Z,32.33
2018-09-03T07:15:36.299Z,30.70
2018-09-03T07:18:16.422Z,31.13
2018-09-03T07:20:51.826Z,31.27
2018-09-03T07:23:38.492Z,29.90
2018-09-03T07:26:19.521Z,28.63
2018-09-03T07:28:57.629Z,30.93
2018-09-03T07:31:48.544Z,28.77
2018-09-03T07:34:24.094Z,30.90
2018-09-03T07:37:01.317Z,33.10
2018-09-03T07:39:42.485Z,28.90
2018-09-03T07:42:21.161Z,28.63
2018-09-03T07:45:04.068Z,31.20
2018-09-03T07:47:41.020Z,32.53
2018-09-03T07:50:20.507Z,30.80
2018-09-03T07:53:00.837Z,31.87
2018-09-03T07:55:40.751Z,29.60
2018-09-03T07:58:20.943Z,29.27
2018-09-03T08:00:58.586Z,30.07
2018-09-03T08:03:34.268Z,31.87
2018-09-03T08:06:09.528Z,27.83
2018-09-03T08:08:45.470Z,31.40
2018-09-03T08:11:26.503Z,29.73
2018-09-03T08:14:05.427Z,30.32
2018-09-03T08:16:48.369Z,30.40
2018-09-03T08:19:26.122Z,30.30
2018-09-03T08:22:05.510Z,31.67
2018-09-03T08:24:48.049Z,30.50
2018-09-03T08:27:27.526Z,32.17
2018-09-03T08:30:07.260Z,36.53
2018-09-03T08:32:54.868Z,34.93
2018-09-03T08:35:30.112Z,32.87
2018-09-03T08:38:08.576Z,32.23
2018-09-03T08:40:49.389Z,33.23
2018-09-03T08:43:30.803Z,33.57
2018-09-03T08:46:09.561Z,34.50
2018-09-03T08:48:50.117Z,36.13
2018-09-03T08:51:30.895Z,32.37
2018-09-03T08:54:10.095Z,36.58
2018-09-03T08:56:51.279Z,35.03
2018-09-03T08:59:29.485Z,35.90
2018-09-03T09:02:12.265Z,35.67
2018-09-03T09:04:51.167Z,32.63
2018-09-03T09:07:51.251Z,32.10
2018-09-03T09:10:31.358Z,35.13
2018-09-03T09:13:09.753Z,33.67
2018-09-03T09:15:49.570Z,36.40
2018-09-03T09:18:30.786Z,34.67
2018-09-03T09:21:21.956Z,33.17
2018-09-03T09:23:57.078Z,34.77
2018-09-03T09:26:35.353Z,33.63
2018-09-03T09:29:16.265Z,31.77
2018-09-03T09:31:54.721Z,35.07
2018-09-03T09:34:34.513Z,30.77
2018-09-03T09:37:15.162Z,29.40
2018-09-03T09:39:54.920Z,25.13
2018-09-03T09:42:34.741Z,26.80
2018-09-03T09:45:12.843Z,24.40
2018-09-03T09:47:48.428Z,24.00
2018-09-03T09:50:23.578Z,21.93
2018-09-03T09:52:58.809Z,22.17
2018-09-03T09:55:37.513Z,23.70
2018-09-03T09:58:16.964Z,23.80
2018-09-03T10:01:01.774Z,27.15
2018-09-03T10:03:39.239Z,24.77
2018-09-03T10:06:18.383Z,23.77
2018-09-03T10:09:05.330Z,23.03
2018-09-03T10:11:40.478Z,21.57
2018-09-03T10:14:25.935Z,21.57
2018-09-03T10:17:01.274Z,20.33
2018-09-03T10:19:39.778Z,18.37
2018-09-03T10:22:20.823Z,20.80
2018-09-03T10:25:01.657Z,20.97
2018-09-03T10:27:48.092Z,20.37
2018-09-03T10:30:23.259Z,19.97
2018-09-03T10:33:02.513Z,16.93
2018-09-03T10:35:42.917Z,18.53
2018-09-03T10:38:20.840Z,20.93
2018-09-03T10:41:00.088Z,21.40
2018-09-03T10:43:42.513Z,18.67
2018-09-03T10:46:23.328Z,21.00
2018-09-03T10:49:04.891Z,19.50
2018-09-03T10:51:43.563Z,18.77
2018-09-03T10:54:22.292Z,18.30
2018-09-03T10:57:04.613Z,18.00
2018-09-03T10:59:45.799Z,17.73
2018-09-03T11:02:27.515Z,16.37
2018-09-03T11:05:06.448Z,18.70
2018-09-03T11:07:47.330Z,16.93
2018-09-03T11:10:26.181Z,18.17
2018-09-03T11:13:07.079Z,16.33
2018-09-03T11:15:48.342Z,20.03
2018-09-03T11:21:10.515Z,16.47
2018-09-03T11:26:32.313Z,16.00
2018-09-03T11:29:10.754Z,22.83
2018-09-03T11:31:49.633Z,16.80
2018-09-03T11:34:34.133Z,19.70
2018-09-03T11:37:12.488Z,17.10
2018-09-03T11:39:47.922Z,16.33
2018-09-03T11:42:31.734Z,16.50
2018-09-03T11:45:11.064Z,19.23
2018-09-03T11:47:50.901Z,16.40
2018-09-03T11:50:32.059Z,20.47
2018-09-03T11:55:52.818Z,20.03
2018-09-03T11:58:42.871Z,19.60
2018-09-03T12:01:18.210Z,17.53
2018-09-03T12:03:53.489Z,21.87
2018-09-03T12:06:39.204Z,22.00
2018-09-03T12:09:14.404Z,26.27
2018-09-03T12:12:00.303Z,23.43
2018-09-03T12:14:38.493Z,26.43
2018-09-03T12:17:15.251Z,24.30
2018-09-03T12:19:54.421Z,23.47
2018-09-03T12:22:32.377Z,27.13
2018-09-03T12:25:16.903Z,22.57
2018-09-03T12:27:55.535Z,20.40
2018-09-03T12:30:36.795Z,22.40
2018-09-03T12:33:17.411Z,23.77
2018-09-03T12:35:55.788Z,22.20
2018-09-03T12:38:38.045Z,23.27
2018-09-03T12:41:19.160Z,21.13
2018-09-03T12:43:58.117Z,25.40
2018-09-03T12:46:36.726Z,25.73
2018-09-03T12:49:12.055Z,27.37
2018-09-03T12:51:47.242Z,24.67
2018-09-03T12:54:22.752Z,24.53
2018-09-03T12:56:57.998Z,25.70
2018-09-03T12:59:33.489Z,23.63
2018-09-03T13:02:09.515Z,25.20
2018-09-03T13:04:44.866Z,25.60
2018-09-03T13:07:20.288Z,28.97
2018-09-03T13:09:55.731Z,26.03
2018-09-03T13:12:31.083Z,28.63
2018-09-03T13:15:06.581Z,27.23
2018-09-03T13:17:43.812Z,26.97
2018-09-03T13:20:19.214Z,24.90
2018-09-03T13:22:54.515Z,26.60
2018-09-03T13:25:29.882Z,28.77
2018-09-03T13:28:05.197Z,27.57
2018-09-03T13:30:42.918Z,29.73
2018-09-03T13:33:25.002Z,29.87
2018-09-03T13:36:03.477Z,30.63
2018-09-03T13:38:48.917Z,33.13
2018-09-03T13:41:27.185Z,29.90
2018-09-03T13:44:06.065Z,30.10
2018-09-03T13:46:46.088Z,30.67
2018-09-03T13:52:06.682Z,30.67
2018-09-03T13:54:44.499Z,30.73
2018-09-03T13:57:27.457Z,35.03
2018-09-03T14:00:08.663Z,30.70
2018-09-03T14:02:47.510Z,33.90
2018-09-03T14:05:28.314Z,31.93
2018-09-03T14:08:07.721Z,35.97
2018-09-03T14:10:45.344Z,30.90
2018-09-03T14:13:30.236Z,33.50
2018-09-03T14:16:08.101Z,31.37
2018-09-03T14:18:45.610Z,31.47
2018-09-03T14:21:25.175Z,27.57
2018-09-03T14:24:00.573Z,26.67
2018-09-03T14:26:35.849Z,28.20
2018-09-03T14:29:16.594Z,28.33
2018-09-03T14:31:51.989Z,29.80
2018-09-03T14:34:36.964Z,27.83
2018-09-03T14:37:12.136Z,28.83
2018-09-03T14:39:52.962Z,29.43
2018-09-03T14:42:31.076Z,29.07
2018-09-03T14:47:54.729Z,26.77
2018-09-03T14:50:31.424Z,27.13
2018-09-03T14:53:14.686Z,30.03
2018-09-03T14:55:53.940Z,29.87
2018-09-03T14:58:31.809Z,27.07
2018-09-03T15:01:13.369Z,27.40
2018-09-03T15:03:53.054Z,24.77
2018-09-03T15:06:31.486Z,25.70
2018-09-03T15:09:14.255Z,24.30
2018-09-03T15:11:57.409Z,25.50
2018-09-03T15:14:41.012Z,27.53
2018-09-03T15:17:17.619Z,28.03
2018-09-03T15:19:54.660Z,25.53
2018-09-03T15:22:33.483Z,25.73
2018-09-03T15:25:08.767Z,26.53
2018-09-03T15:27:44.549Z,26.03
2018-09-03T15:30:23.451Z,27.43
2018-09-03T15:32:58.952Z,26.60
2018-09-03T15:35:37.603Z,25.53
2018-09-03T15:38:15.391Z,26.87
2018-09-03T15:40:50.758Z,27.10
2018-09-03T15:43:27.454Z,23.70
2018-09-03T15:46:02.779Z,26.23
2018-09-03T15:48:41.340Z,26.97
2018-09-03T15:51:22.225Z,25.60
2018-09-03T15:54:01.188Z,29.90
2018-09-03T15:56:39.154Z,26.43
2018-09-03T15:59:14.513Z,29.00
2018-09-03T16:01:52.836Z,27.13
2018-09-03T16:04:28.245Z,28.77
2018-09-03T16:07:03.549Z,27.27
2018-09-03T16:09:45.498Z,28.63
2018-09-03T16:12:21.429Z,28.03
2018-09-03T16:14:59.690Z,28.67
2018-09-03T16:17:36.796Z,32.23
2018-09-03T16:20:12.073Z,27.00
2018-09-03T16:22:47.537Z,31.30
2018-09-03T16:25:27.287Z,30.67
2018-09-03T16:28:05.002Z,27.57
2018-09-03T16:30:42.737Z,25.27
2018-09-03T16:33:19.587Z,28.20
2018-09-03T16:35:57.208Z,28.07
2018-09-03T16:38:32.601Z,24.97
2018-09-03T16:41:10.547Z,28.63
2018-09-03T16:43:47.552Z,29.57
2018-09-03T16:46:25.052Z,26.73
2018-09-03T16:49:07.206Z,27.97
2018-09-03T16:51:46.427Z,27.80
2018-09-03T16:54:21.874Z,28.00
2018-09-03T16:57:05.678Z,28.43
2018-09-03T16:59:41.167Z,29.50
2018-09-03T17:02:16.542Z,27.47
2018-09-03T17:04:55.531Z,29.10
2018-09-03T17:07:30.971Z,30.27
2018-09-03T17:10:08.903Z,30.10
2018-09-03T17:12:45.171Z,30.13
2018-09-03T17:15:20.477Z,33.00
2018-09-03T17:17:55.827Z,29.23
2018-09-03T17:20:35.794Z,34.33
2018-09-03T17:23:12.494Z,32.53
2018-09-03T17:25:49.688Z,31.07
2018-09-03T17:28:25.547Z,32.20
2018-09-03T17:31:00.872Z,34.70
2018-09-03T17:33:36.172Z,34.23
2018-09-03T17:36:14.996Z,36.77
2018-09-03T17:38:53.542Z,32.43
2018-09-03T17:41:30.960Z,33.47
2018-09-03T17:44:07.001Z,35.33
2018-09-03T17:46:42.875Z,34.77
2018-09-03T17:49:18.210Z,34.87
2018-09-03T17:51:59.727Z,34.63
2018-09-03T17:54:35.008Z,37.27
2018-09-03T17:57:10.617Z,34.93
2018-09-03T17:59:47.238Z,37.30
2018-09-03T18:02:22.515Z,39.73
2018-09-03T18:04:57.670Z,37.60
2018-09-03T18:07:36.329Z,39.47
2018-09-03T18:10:11.870Z,37.83
2018-09-03T18:12:47.160Z,37.50
2018-09-03T18:15:26.328Z,39.33
2018-09-03T18:18:01.715Z,36.57
2018-09-03T18:20:40.688Z,40.13
2018-09-03T18:23:19.160Z,37.93
2018-09-03T18:25:58.028Z,39.10
2018-09-03T18:28:39.095Z,39.13
2018-09-03T18:31:22.061Z,39.00
2018-09-03T18:34:03.883Z,37.70
2018-09-03T18:36:42.593Z,41.20
2018-09-03T18:39:24.970Z,35.93
2018-09-03T18:42:01.854Z,37.43
2018-09-03T18:44:46.516Z,41.73
2018-09-03T18:47:22.171Z,39.10
2018-09-03T18:50:01.585Z,41.07
2018-09-03T18:52:43.312Z,40.93
2018-09-03T18:55:21.496Z,39.57
2018-09-03T18:57:57.900Z,39.27
2018-09-03T19:00:33.779Z,39.50
2018-09-03T19:03:14.736Z,42.53
2018-09-03T19:05:50.221Z,37.87
2018-09-03T19:08:26.449Z,42.17
2018-09-03T19:11:09.307Z,42.63
2018-09-03T19:13:45.601Z,45.40
2018-09-03T19:16:21.290Z,42.97
2018-09-03T19:18:57.018Z,42.30
2018-09-03T19:21:32.679Z,43.17
2018-09-03T19:24:12.017Z,45.07
2018-09-03T19:26:47.681Z,44.67
2018-09-03T19:29:32.545Z,43.70
2018-09-03T19:32:08.244Z,44.60
2018-09-03T19:34:43.942Z,45.63
2018-09-03T19:37:19.973Z,41.67
2018-09-03T19:39:55.640Z,46.27
2018-09-03T19:42:31.402Z,43.53
2018-09-03T19:45:15.234Z,42.00
2018-09-03T19:47:50.871Z,45.80
2018-09-03T19:50:26.131Z,45.90
2018-09-03T19:53:02.283Z,44.87
2018-09-03T19:55:37.716Z,45.73
2018-09-03T19:58:14.874Z,43.20
2018-09-03T20:00:53.809Z,46.73
2018-09-03T20:03:29.449Z,44.50
2018-09-03T20:06:04.998Z,46.37
2018-09-03T20:08:44.269Z,42.87
2018-09-03T20:11:19.822Z,44.27
2018-09-03T20:13:55.232Z,46.70
2018-09-03T20:16:38.904Z,45.47
2018-09-03T20:19:14.167Z,39.50
2018-09-03T20:21:49.339Z,42.47
2018-09-03T20:24:25.173Z,44.23
2018-09-03T20:27:03.246Z,42.17
2018-09-03T20:29:38.654Z,43.03
2018-09-03T20:32:17.969Z,40.53
2018-09-03T20:34:53.259Z,40.50
2018-09-03T20:37:28.801Z,39.70
2018-09-03T20:40:04.325Z,42.57
2018-09-03T20:42:39.791Z,40.57
2018-09-03T20:45:14.992Z,40.77
2018-09-03T20:47:51.435Z,39.30
2018-09-03T20:50:26.705Z,40.80
2018-09-03T20:53:02.086Z,38.97
2018-09-03T20:55:41.400Z,41.10
2018-09-03T20:58:16.855Z,40.13
2018-09-03T21:01:00.498Z,49.33
2018-09-03T21:03:35.742Z,43.43
2018-09-03T21:06:11.152Z,47.13
2018-09-03T21:08:50.688Z,44.73
2018-09-03T21:11:27.160Z,42.77
2018-09-03T21:14:02.638Z,42.40
2018-09-03T21:16:40.588Z,38.20
2018-09-03T21:19:16.070Z,38.30
2018-09-03T21:21:51.543Z,37.17
2018-09-03T21:24:27.148Z,38.53
2018-09-03T21:27:02.463Z,34.60
2018-09-03T21:29:39.864Z,39.77
2018-09-03T21:32:16.205Z,36.07
2018-09-03T21:34:59.733Z,41.40
2018-09-03T21:37:35.333Z,45.70
2018-09-03T21:40:18.898Z,48.40
2018-09-03T21:42:54.270Z,43.63
2018-09-03T21:45:29.911Z,40.53
2018-09-03T21:48:06.106Z,45.63
2018-09-03T21:50:41.685Z,56.03
2018-09-03T21:53:17.031Z,51.00
2018-09-03T21:55:53.965Z,51.90
2018-09-03T21:58:30.267Z,39.83
2018-09-03T22:01:05.641Z,40.97
2018-09-03T22:03:45.142Z,47.37
2018-09-03T22:06:20.567Z,40.70
2018-09-03T22:08:55.854Z,43.87
2018-09-03T22:11:31.863Z,44.23
2018-09-03T22:14:07.183Z,57.77
2018-09-03T22:16:42.751Z,50.87
2018-09-03T22:19:20.647Z,46.57
2018-09-03T22:21:56.754Z,44.00
2018-09-03T22:24:31.996Z,43.30
2018-09-03T22:27:12.043Z,47.97
2018-09-03T22:29:47.316Z,59.33
2018-09-03T22:32:22.784Z,40.90
2018-09-03T22:34:58.330Z,46.27
2018-09-03T22:37:33.607Z,45.13
2018-09-03T22:40:08.920Z,43.60
2018-09-03T22:42:44.300Z,42.00
2018-09-03T22:45:21.122Z,36.80
2018-09-03T22:47:56.248Z,36.40
2018-09-03T22:50:31.641Z,36.57
2018-09-03T22:53:09.086Z,38.27
2018-09-03T22:55:44.361Z,36.33
2018-09-03T22:58:19.461Z,34.10
2018-09-03T23:00:55.063Z,38.67
2018-09-03T23:03:30.196Z,35.77
2018-09-03T23:06:05.568Z,42.03
2018-09-03T23:08:43.143Z,37.67
2018-09-03T23:11:18.111Z,37.63
2018-09-03T23:13:53.509Z,37.70
2018-09-03T23:16:29.610Z,34.57
2018-09-03T23:19:04.988Z,34.50
2018-09-03T23:21:40.233Z,35.57
2018-09-03T23:24:15.659Z,40.53
2018-09-03T23:26:50.840Z,37.77
2018-09-03T23:29:26.148Z,37.20
2018-09-03T23:32:02.534Z,38.63
2018-09-03T23:34:37.729Z,38.13
2018-09-03T23:37:12.853Z,40.90
2018-09-03T23:39:50.695Z,43.70
2018-09-03T23:42:25.674Z,39.67
2018-09-03T23:45:01.043Z,39.53
2018-09-03T23:47:44.608Z,39.83
2018-09-03T23:50:19.954Z,39.63
2018-09-03T23:52:55.407Z,38.57
2018-09-03T23:55:30.934Z,38.90
2018-09-03T23:58:06.153Z,39.33
